sensor_id;sensor_type;location;lat;lon;timestamp;temperature;humidity
15413;DHT22;7805;49.554;7.632;2024-01-30T00:01:11;3.50;99.90
15413;DHT22;7805;49.554;7.632;2024-01-30T00:03:37;3.50;99.90
15413;DHT22;7805;49.554;7.632;2024-01-30T00:06:05;3.50;99.90
15413;DHT22;7805;49.554;7.632;2024-01-30T00:08:31;3.50;99.90
15413;DHT22;7805;49.554;7.632;2024-01-30T00:10:56;3.50;99.90
15413;DHT22;7805;49.554;7.632;2024-01-30T00:13:22;3.40;99.90
15413;DHT22;7805;49.554;7.632;2024-01-30T00:15:48;3.40;99.90
15413;DHT22;7805;49.554;7.632;2024-01-30T00:18:14;3.40;99.90
15413;DHT22;7805;49.554;7.632;2024-01-30T00:20:39;3.40;99.90
15413;DHT22;7805;49.554;7.632;2024-01-30T00:23:05;3.40;99.90
15413;DHT22;7805;49.554;7.632;2024-01-30T00:25:30;3.40;99.90
15413;DHT22;7805;49.554;7.632;2024-01-30T00:27:56;3.30;99.90
15413;DHT22;7805;49.554;7.632;2024-01-30T00:30:22;3.30;99.90
15413;DHT22;7805;49.554;7.632;2024-01-30T00:32:47;3.30;99.90
15413;DHT22;7805;49.554;7.632;2024-01-30T00:35:13;3.30;99.90
15413;DHT22;7805;49.554;7.632;2024-01-30T00:37:38;3.30;99.90
15413;DHT22;7805;49.554;7.632;2024-01-30T00:40:04;3.30;99.90
15413;DHT22;7805;49.554;7.632;2024-01-30T00:42:31;3.30;99.90
15413;DHT22;7805;49.554;7.632;2024-01-30T00:44:57;3.20;99.90
15413;DHT22;7805;49.554;7.632;2024-01-30T00:47:23;3.20;99.90
15413;DHT22;7805;49.554;7.632;2024-01-30T00:49:48;3.10;99.90
15413;DHT22;7805;49.554;7.632;2024-01-30T00:52:15;3.10;99.90
15413;DHT22;7805;49.554;7.632;2024-01-30T00:54:41;3.10;99.90
15413;DHT22;7805;49.554;7.632;2024-01-30T00:57:07;3.10;99.90
15413;DHT22;7805;49.554;7.632;2024-01-30T00:59:32;3.10;99.90
15413;DHT22;7805;49.554;7.632;2024-01-30T01:01:58;3.00;99.90
15413;DHT22;7805;49.554;7.632;2024-01-30T01:04:24;3.00;99.90
15413;DHT22;7805;49.554;7.632;2024-01-30T01:06:50;3.00;99.90
15413;DHT22;7805;49.554;7.632;2024-01-30T01:09:15;3.00;99.90
15413;DHT22;7805;49.554;7.632;2024-01-30T01:11:41;3.00;99.90
15413;DHT22;7805;49.554;7.632;2024-01-30T01:14:07;3.00;99.90
15413;DHT22;7805;49.554;7.632;2024-01-30T01:16:33;3.00;99.90
15413;DHT22;7805;49.554;7.632;2024-01-30T01:18:58;3.00;99.90
15413;DHT22;7805;49.554;7.632;2024-01-30T01:21:25;3.00;99.90
15413;DHT22;7805;49.554;7.632;2024-01-30T01:23:51;3.00;99.90
15413;DHT22;7805;49.554;7.632;2024-01-30T01:26:16;3.00;99.90
15413;DHT22;7805;49.554;7.632;2024-01-30T01:28:42;2.90;99.90
15413;DHT22;7805;49.554;7.632;2024-01-30T01:31:08;2.90;99.90
15413;DHT22;7805;49.554;7.632;2024-01-30T01:33:34;2.80;99.90
15413;DHT22;7805;49.554;7.632;2024-01-30T01:36:01;2.80;99.90
15413;DHT22;7805;49.554;7.632;2024-01-30T01:38:29;2.80;99.90
15413;DHT22;7805;49.554;7.632;2024-01-30T01:40:54;2.90;99.90
15413;DHT22;7805;49.554;7.632;2024-01-30T01:43:20;2.80;99.90
15413;DHT22;7805;49.554;7.632;2024-01-30T01:45:46;2.80;99.90
15413;DHT22;7805;49.554;7.632;2024-01-30T01:48:11;2.80;99.90
15413;DHT22;7805;49.554;7.632;2024-01-30T01:50:38;2.80;99.90
15413;DHT22;7805;49.554;7.632;2024-01-30T01:53:07;2.70;99.90
15413;DHT22;7805;49.554;7.632;2024-01-30T01:55:33;2.70;99.90
15413;DHT22;7805;49.554;7.632;2024-01-30T01:58:00;2.80;99.90
15413;DHT22;7805;49.554;7.632;2024-01-30T02:00:26;2.80;99.90
15413;DHT22;7805;49.554;7.632;2024-01-30T02:02:53;2.80;99.90
15413;DHT22;7805;49.554;7.632;2024-01-30T02:05:19;2.80;99.90
15413;DHT22;7805;49.554;7.632;2024-01-30T02:07:46;2.80;99.90
15413;DHT22;7805;49.554;7.632;2024-01-30T02:10:12;2.80;99.90
15413;DHT22;7805;49.554;7.632;2024-01-30T02:12:38;2.80;99.90
15413;DHT22;7805;49.554;7.632;2024-01-30T02:15:05;2.80;99.90
15413;DHT22;7805;49.554;7.632;2024-01-30T02:17:32;2.70;99.90
15413;DHT22;7805;49.554;7.632;2024-01-30T02:20:01;2.70;99.90
15413;DHT22;7805;49.554;7.632;2024-01-30T02:22:27;2.70;99.90
15413;DHT22;7805;49.554;7.632;2024-01-30T02:24:53;2.70;99.90
15413;DHT22;7805;49.554;7.632;2024-01-30T02:27:18;2.70;99.90
15413;DHT22;7805;49.554;7.632;2024-01-30T02:29:44;2.80;99.90
15413;DHT22;7805;49.554;7.632;2024-01-30T02:32:09;2.80;99.90
15413;DHT22;7805;49.554;7.632;2024-01-30T02:34:35;2.80;99.90
15413;DHT22;7805;49.554;7.632;2024-01-30T02:37:00;2.80;99.90
15413;DHT22;7805;49.554;7.632;2024-01-30T02:39:26;2.70;99.90
15413;DHT22;7805;49.554;7.632;2024-01-30T02:41:52;2.70;99.90
15413;DHT22;7805;49.554;7.632;2024-01-30T02:44:17;2.70;99.90
15413;DHT22;7805;49.554;7.632;2024-01-30T02:46:43;2.70;99.90
15413;DHT22;7805;49.554;7.632;2024-01-30T02:49:08;2.80;99.90
15413;DHT22;7805;49.554;7.632;2024-01-30T02:51:34;2.80;99.90
15413;DHT22;7805;49.554;7.632;2024-01-30T02:54:00;2.80;99.90
15413;DHT22;7805;49.554;7.632;2024-01-30T02:56:25;2.70;99.90
15413;DHT22;7805;49.554;7.632;2024-01-30T02:58:51;2.80;99.90
15413;DHT22;7805;49.554;7.632;2024-01-30T03:01:16;2.70;99.90
15413;DHT22;7805;49.554;7.632;2024-01-30T03:03:42;2.70;99.90
15413;DHT22;7805;49.554;7.632;2024-01-30T03:06:08;2.70;99.90
15413;DHT22;7805;49.554;7.632;2024-01-30T03:08:34;2.70;99.90
15413;DHT22;7805;49.554;7.632;2024-01-30T03:11:00;2.70;99.90
15413;DHT22;7805;49.554;7.632;2024-01-30T03:13:26;2.70;99.90
15413;DHT22;7805;49.554;7.632;2024-01-30T03:15:51;2.60;99.90
15413;DHT22;7805;49.554;7.632;2024-01-30T03:18:17;2.60;99.90
15413;DHT22;7805;49.554;7.632;2024-01-30T03:20:43;2.60;99.90
15413;DHT22;7805;49.554;7.632;2024-01-30T03:23:08;2.60;99.90
15413;DHT22;7805;49.554;7.632;2024-01-30T03:25:34;2.60;99.90
15413;DHT22;7805;49.554;7.632;2024-01-30T03:27:59;2.50;99.90
15413;DHT22;7805;49.554;7.632;2024-01-30T03:30:25;2.40;99.90
15413;DHT22;7805;49.554;7.632;2024-01-30T03:32:51;2.30;99.90
15413;DHT22;7805;49.554;7.632;2024-01-30T03:35:16;2.40;99.90
15413;DHT22;7805;49.554;7.632;2024-01-30T03:37:42;2.40;99.90
15413;DHT22;7805;49.554;7.632;2024-01-30T03:40:08;2.50;99.90
15413;DHT22;7805;49.554;7.632;2024-01-30T03:42:33;2.50;99.90
15413;DHT22;7805;49.554;7.632;2024-01-30T03:44:59;2.50;99.90
15413;DHT22;7805;49.554;7.632;2024-01-30T03:47:24;2.50;99.90
15413;DHT22;7805;49.554;7.632;2024-01-30T03:49:50;2.50;99.90
15413;DHT22;7805;49.554;7.632;2024-01-30T03:52:15;2.50;99.90
15413;DHT22;7805;49.554;7.632;2024-01-30T03:54:41;2.50;99.90
15413;DHT22;7805;49.554;7.632;2024-01-30T03:57:06;2.50;99.90
15413;DHT22;7805;49.554;7.632;2024-01-30T03:59:32;2.50;99.90
15413;DHT22;7805;49.554;7.632;2024-01-30T04:01:58;2.50;99.90
15413;DHT22;7805;49.554;7.632;2024-01-30T04:04:23;2.50;99.90
15413;DHT22;7805;49.554;7.632;2024-01-30T04:06:49;2.50;99.90
15413;DHT22;7805;49.554;7.632;2024-01-30T04:09:15;2.40;99.90
15413;DHT22;7805;49.554;7.632;2024-01-30T04:11:41;2.30;99.90
15413;DHT22;7805;49.554;7.632;2024-01-30T04:14:07;2.20;99.90
15413;DHT22;7805;49.554;7.632;2024-01-30T04:16:33;2.30;99.90
15413;DHT22;7805;49.554;7.632;2024-01-30T04:18:58;2.30;99.90
15413;DHT22;7805;49.554;7.632;2024-01-30T04:21:24;2.30;99.90
15413;DHT22;7805;49.554;7.632;2024-01-30T04:23:51;2.30;99.90
15413;DHT22;7805;49.554;7.632;2024-01-30T04:26:17;2.30;99.90
15413;DHT22;7805;49.554;7.632;2024-01-30T04:28:44;2.30;99.90
15413;DHT22;7805;49.554;7.632;2024-01-30T04:31:10;2.30;99.90
15413;DHT22;7805;49.554;7.632;2024-01-30T04:33:36;2.30;99.90
15413;DHT22;7805;49.554;7.632;2024-01-30T04:36:02;2.30;99.90
15413;DHT22;7805;49.554;7.632;2024-01-30T04:38:28;2.30;99.90
15413;DHT22;7805;49.554;7.632;2024-01-30T04:40:54;2.20;99.90
15413;DHT22;7805;49.554;7.632;2024-01-30T04:43:19;2.10;99.90
15413;DHT22;7805;49.554;7.632;2024-01-30T04:45:45;2.10;99.90
15413;DHT22;7805;49.554;7.632;2024-01-30T04:48:10;2.00;99.90
15413;DHT22;7805;49.554;7.632;2024-01-30T04:50:36;1.90;99.90
15413;DHT22;7805;49.554;7.632;2024-01-30T04:53:02;1.90;99.90
15413;DHT22;7805;49.554;7.632;2024-01-30T04:55:27;2.00;99.90
15413;DHT22;7805;49.554;7.632;2024-01-30T04:57:53;2.00;99.90
15413;DHT22;7805;49.554;7.632;2024-01-30T05:00:19;2.10;99.90
15413;DHT22;7805;49.554;7.632;2024-01-30T05:02:44;2.10;99.90
15413;DHT22;7805;49.554;7.632;2024-01-30T05:05:10;2.10;99.90
15413;DHT22;7805;49.554;7.632;2024-01-30T05:07:36;2.10;99.90
15413;DHT22;7805;49.554;7.632;2024-01-30T05:10:02;2.10;99.90
15413;DHT22;7805;49.554;7.632;2024-01-30T05:12:28;2.10;99.90
15413;DHT22;7805;49.554;7.632;2024-01-30T05:14:54;2.00;99.90
15413;DHT22;7805;49.554;7.632;2024-01-30T05:17:19;2.10;99.90
15413;DHT22;7805;49.554;7.632;2024-01-30T05:19:45;2.10;99.90
15413;DHT22;7805;49.554;7.632;2024-01-30T05:22:10;2.10;99.90
15413;DHT22;7805;49.554;7.632;2024-01-30T05:24:37;2.10;99.90
15413;DHT22;7805;49.554;7.632;2024-01-30T05:27:02;2.10;99.90
15413;DHT22;7805;49.554;7.632;2024-01-30T05:29:28;2.20;99.90
15413;DHT22;7805;49.554;7.632;2024-01-30T05:31:54;2.10;99.90
15413;DHT22;7805;49.554;7.632;2024-01-30T05:34:19;2.10;99.90
15413;DHT22;7805;49.554;7.632;2024-01-30T05:36:45;2.20;99.90
15413;DHT22;7805;49.554;7.632;2024-01-30T05:39:10;2.20;99.90
15413;DHT22;7805;49.554;7.632;2024-01-30T05:41:36;2.20;99.90
15413;DHT22;7805;49.554;7.632;2024-01-30T05:44:01;3.90;99.90
15413;DHT22;7805;49.554;7.632;2024-01-30T05:46:27;2.40;99.90
15413;DHT22;7805;49.554;7.632;2024-01-30T05:48:53;1.60;99.90
15413;DHT22;7805;49.554;7.632;2024-01-30T05:51:18;2.00;99.90
15413;DHT22;7805;49.554;7.632;2024-01-30T05:53:44;2.00;99.90
15413;DHT22;7805;49.554;7.632;2024-01-30T05:56:10;2.00;99.90
15413;DHT22;7805;49.554;7.632;2024-01-30T05:58:35;2.00;99.90
15413;DHT22;7805;49.554;7.632;2024-01-30T06:01:03;2.00;99.90
15413;DHT22;7805;49.554;7.632;2024-01-30T06:03:31;2.00;99.90
15413;DHT22;7805;49.554;7.632;2024-01-30T06:05:57;2.00;99.90
15413;DHT22;7805;49.554;7.632;2024-01-30T06:08:23;2.00;99.90
15413;DHT22;7805;49.554;7.632;2024-01-30T06:10:48;2.00;99.90
15413;DHT22;7805;49.554;7.632;2024-01-30T06:13:14;2.00;99.90
15413;DHT22;7805;49.554;7.632;2024-01-30T06:15:40;2.10;99.90
15413;DHT22;7805;49.554;7.632;2024-01-30T06:18:05;2.10;99.90
15413;DHT22;7805;49.554;7.632;2024-01-30T06:20:31;2.10;99.90
15413;DHT22;7805;49.554;7.632;2024-01-30T06:22:56;2.10;99.90
15413;DHT22;7805;49.554;7.632;2024-01-30T06:25:22;2.10;99.90
15413;DHT22;7805;49.554;7.632;2024-01-30T06:27:47;2.10;99.90
15413;DHT22;7805;49.554;7.632;2024-01-30T06:30:14;2.10;99.90
15413;DHT22;7805;49.554;7.632;2024-01-30T06:32:39;2.00;99.90
15413;DHT22;7805;49.554;7.632;2024-01-30T06:35:05;2.00;99.90
15413;DHT22;7805;49.554;7.632;2024-01-30T06:37:31;2.00;99.90
15413;DHT22;7805;49.554;7.632;2024-01-30T06:39:57;1.90;99.90
15413;DHT22;7805;49.554;7.632;2024-01-30T06:42:22;1.90;99.90
15413;DHT22;7805;49.554;7.632;2024-01-30T06:44:48;2.00;99.90
15413;DHT22;7805;49.554;7.632;2024-01-30T06:47:13;2.00;99.90
15413;DHT22;7805;49.554;7.632;2024-01-30T06:49:39;2.00;99.90
15413;DHT22;7805;49.554;7.632;2024-01-30T06:52:07;2.00;99.90
15413;DHT22;7805;49.554;7.632;2024-01-30T06:54:33;2.00;99.90
15413;DHT22;7805;49.554;7.632;2024-01-30T06:56:59;2.00;99.90
15413;DHT22;7805;49.554;7.632;2024-01-30T06:59:25;2.00;99.90
15413;DHT22;7805;49.554;7.632;2024-01-30T07:01:50;2.00;99.90
15413;DHT22;7805;49.554;7.632;2024-01-30T07:04:16;2.00;99.90
15413;DHT22;7805;49.554;7.632;2024-01-30T07:06:41;2.00;99.90
15413;DHT22;7805;49.554;7.632;2024-01-30T07:09:07;2.00;99.90
15413;DHT22;7805;49.554;7.632;2024-01-30T07:11:34;2.00;99.90
15413;DHT22;7805;49.554;7.632;2024-01-30T07:13:59;2.10;99.90
15413;DHT22;7805;49.554;7.632;2024-01-30T07:16:25;2.10;99.90
15413;DHT22;7805;49.554;7.632;2024-01-30T07:18:51;2.10;99.90
15413;DHT22;7805;49.554;7.632;2024-01-30T07:21:16;2.00;99.90
15413;DHT22;7805;49.554;7.632;2024-01-30T07:23:42;2.00;99.90
15413;DHT22;7805;49.554;7.632;2024-01-30T07:26:08;2.00;99.90
15413;DHT22;7805;49.554;7.632;2024-01-30T07:28:35;2.00;99.90
15413;DHT22;7805;49.554;7.632;2024-01-30T07:31:01;2.00;99.90
15413;DHT22;7805;49.554;7.632;2024-01-30T07:33:27;2.10;99.90
15413;DHT22;7805;49.554;7.632;2024-01-30T07:35:53;2.20;99.90
15413;DHT22;7805;49.554;7.632;2024-01-30T07:38:19;2.20;99.90
15413;DHT22;7805;49.554;7.632;2024-01-30T07:40:44;2.30;99.90
15413;DHT22;7805;49.554;7.632;2024-01-30T07:43:10;2.30;99.90
15413;DHT22;7805;49.554;7.632;2024-01-30T07:45:35;2.30;99.90
15413;DHT22;7805;49.554;7.632;2024-01-30T07:48:03;2.30;99.90
15413;DHT22;7805;49.554;7.632;2024-01-30T07:50:28;2.40;99.90
15413;DHT22;7805;49.554;7.632;2024-01-30T07:52:56;2.40;99.90
15413;DHT22;7805;49.554;7.632;2024-01-30T07:55:22;2.40;99.90
15413;DHT22;7805;49.554;7.632;2024-01-30T07:57:52;2.50;99.90
15413;DHT22;7805;49.554;7.632;2024-01-30T08:00:18;2.50;99.90
15413;DHT22;7805;49.554;7.632;2024-01-30T08:02:45;2.50;99.90
15413;DHT22;7805;49.554;7.632;2024-01-30T08:05:10;2.50;99.90
15413;DHT22;7805;49.554;7.632;2024-01-30T08:07:37;2.50;99.90
15413;DHT22;7805;49.554;7.632;2024-01-30T08:10:02;2.60;99.90
15413;DHT22;7805;49.554;7.632;2024-01-30T08:12:28;2.70;99.90
15413;DHT22;7805;49.554;7.632;2024-01-30T08:14:54;2.80;99.90
15413;DHT22;7805;49.554;7.632;2024-01-30T08:17:20;2.80;99.90
15413;DHT22;7805;49.554;7.632;2024-01-30T08:19:45;2.90;99.90
15413;DHT22;7805;49.554;7.632;2024-01-30T08:22:12;2.90;99.90
15413;DHT22;7805;49.554;7.632;2024-01-30T08:24:37;2.90;99.90
15413;DHT22;7805;49.554;7.632;2024-01-30T08:27:06;3.00;99.90
15413;DHT22;7805;49.554;7.632;2024-01-30T08:29:32;3.10;99.90
15413;DHT22;7805;49.554;7.632;2024-01-30T08:31:57;3.30;99.90
15413;DHT22;7805;49.554;7.632;2024-01-30T08:34:24;3.40;99.90
15413;DHT22;7805;49.554;7.632;2024-01-30T08:36:50;3.50;99.90
15413;DHT22;7805;49.554;7.632;2024-01-30T08:39:15;3.60;99.90
15413;DHT22;7805;49.554;7.632;2024-01-30T08:41:41;3.80;99.90
15413;DHT22;7805;49.554;7.632;2024-01-30T08:44:06;3.90;99.90
15413;DHT22;7805;49.554;7.632;2024-01-30T08:46:32;3.90;99.90
15413;DHT22;7805;49.554;7.632;2024-01-30T08:48:59;3.90;99.90
15413;DHT22;7805;49.554;7.632;2024-01-30T08:51:24;3.90;99.90
15413;DHT22;7805;49.554;7.632;2024-01-30T08:53:50;4.10;99.90
15413;DHT22;7805;49.554;7.632;2024-01-30T08:56:16;4.10;99.90
15413;DHT22;7805;49.554;7.632;2024-01-30T08:58:42;4.20;99.90
15413;DHT22;7805;49.554;7.632;2024-01-30T09:01:07;4.20;99.90
15413;DHT22;7805;49.554;7.632;2024-01-30T09:03:33;4.30;99.90
15413;DHT22;7805;49.554;7.632;2024-01-30T09:05:59;4.40;99.90
15413;DHT22;7805;49.554;7.632;2024-01-30T09:08:25;4.50;99.90
15413;DHT22;7805;49.554;7.632;2024-01-30T09:10:50;4.70;99.90
15413;DHT22;7805;49.554;7.632;2024-01-30T09:13:16;4.80;99.90
15413;DHT22;7805;49.554;7.632;2024-01-30T09:15:42;4.90;99.90
15413;DHT22;7805;49.554;7.632;2024-01-30T09:18:07;5.00;99.90
15413;DHT22;7805;49.554;7.632;2024-01-30T09:20:33;5.00;99.90
15413;DHT22;7805;49.554;7.632;2024-01-30T09:22:58;5.10;99.90
15413;DHT22;7805;49.554;7.632;2024-01-30T09:25:24;5.10;99.90
15413;DHT22;7805;49.554;7.632;2024-01-30T09:27:50;5.10;99.90
15413;DHT22;7805;49.554;7.632;2024-01-30T09:30:15;7.30;99.90
15413;DHT22;7805;49.554;7.632;2024-01-30T09:32:42;5.30;99.90
15413;DHT22;7805;49.554;7.632;2024-01-30T09:35:08;5.40;99.90
15413;DHT22;7805;49.554;7.632;2024-01-30T09:37:34;5.50;99.90
15413;DHT22;7805;49.554;7.632;2024-01-30T09:40:00;5.70;99.90
15413;DHT22;7805;49.554;7.632;2024-01-30T09:42:34;5.90;99.90
15413;DHT22;7805;49.554;7.632;2024-01-30T09:45:05;5.90;99.90
15413;DHT22;7805;49.554;7.632;2024-01-30T09:47:41;5.90;99.90
15413;DHT22;7805;49.554;7.632;2024-01-30T09:50:13;6.00;99.90
15413;DHT22;7805;49.554;7.632;2024-01-30T09:52:40;6.10;99.90
15413;DHT22;7805;49.554;7.632;2024-01-30T09:55:06;6.30;99.90
15413;DHT22;7805;49.554;7.632;2024-01-30T09:57:32;6.50;99.90
15413;DHT22;7805;49.554;7.632;2024-01-30T09:59:58;6.80;99.90
15413;DHT22;7805;49.554;7.632;2024-01-30T10:02:24;7.00;99.90
15413;DHT22;7805;49.554;7.632;2024-01-30T10:04:51;7.10;99.90
15413;DHT22;7805;49.554;7.632;2024-01-30T10:07:17;7.10;99.90
15413;DHT22;7805;49.554;7.632;2024-01-30T10:09:43;7.10;99.90
15413;DHT22;7805;49.554;7.632;2024-01-30T10:12:09;5.50;99.90
15413;DHT22;7805;49.554;7.632;2024-01-30T10:14:41;7.00;99.90
15413;DHT22;7805;49.554;7.632;2024-01-30T10:17:11;7.10;99.90
15413;DHT22;7805;49.554;7.632;2024-01-30T10:19:38;6.80;99.90
15413;DHT22;7805;49.554;7.632;2024-01-30T10:22:04;6.80;99.90
15413;DHT22;7805;49.554;7.632;2024-01-30T10:24:31;6.80;99.90
15413;DHT22;7805;49.554;7.632;2024-01-30T10:26:57;6.90;99.90
15413;DHT22;7805;49.554;7.632;2024-01-30T10:29:22;7.00;99.90
15413;DHT22;7805;49.554;7.632;2024-01-30T10:31:58;7.00;99.90
15413;DHT22;7805;49.554;7.632;2024-01-30T10:34:24;7.00;99.90
15413;DHT22;7805;49.554;7.632;2024-01-30T10:36:50;7.10;99.90
15413;DHT22;7805;49.554;7.632;2024-01-30T10:39:22;7.10;99.90
15413;DHT22;7805;49.554;7.632;2024-01-30T10:41:50;7.20;99.90
15413;DHT22;7805;49.554;7.632;2024-01-30T10:44:19;7.30;99.90
15413;DHT22;7805;49.554;7.632;2024-01-30T10:46:52;7.40;99.90
15413;DHT22;7805;49.554;7.632;2024-01-30T10:49:22;9.60;99.90
15413;DHT22;7805;49.554;7.632;2024-01-30T10:51:49;7.60;99.90
15413;DHT22;7805;49.554;7.632;2024-01-30T10:54:15;7.80;99.90
15413;DHT22;7805;49.554;7.632;2024-01-30T10:56:42;7.90;99.90
15413;DHT22;7805;49.554;7.632;2024-01-30T10:59:09;8.00;99.90
15413;DHT22;7805;49.554;7.632;2024-01-30T11:01:35;8.10;99.90
15413;DHT22;7805;49.554;7.632;2024-01-30T11:04:01;8.30;99.90
15413;DHT22;7805;49.554;7.632;2024-01-30T11:06:26;8.50;99.90
15413;DHT22;7805;49.554;7.632;2024-01-30T11:09:05;8.60;99.90
15413;DHT22;7805;49.554;7.632;2024-01-30T11:11:57;8.70;99.90
15413;DHT22;7805;49.554;7.632;2024-01-30T11:14:29;8.70;99.90
15413;DHT22;7805;49.554;7.632;2024-01-30T11:16:57;8.90;99.90
15413;DHT22;7805;49.554;7.632;2024-01-30T11:19:24;9.20;99.90
15413;DHT22;7805;49.554;7.632;2024-01-30T11:21:52;9.50;99.90
15413;DHT22;7805;49.554;7.632;2024-01-30T11:24:25;9.70;99.90
15413;DHT22;7805;49.554;7.632;2024-01-30T11:26:58;10.00;99.90
15413;DHT22;7805;49.554;7.632;2024-01-30T11:29:25;10.30;99.90
15413;DHT22;7805;49.554;7.632;2024-01-30T11:31:55;10.40;99.90
15413;DHT22;7805;49.554;7.632;2024-01-30T11:34:21;10.70;99.90
15413;DHT22;7805;49.554;7.632;2024-01-30T11:36:56;10.90;99.90
15413;DHT22;7805;49.554;7.632;2024-01-30T11:39:25;11.10;99.90
15413;DHT22;7805;49.554;7.632;2024-01-30T11:41:55;11.20;99.90
15413;DHT22;7805;49.554;7.632;2024-01-30T11:44:21;11.30;99.90
15413;DHT22;7805;49.554;7.632;2024-01-30T11:46:48;11.50;99.90
15413;DHT22;7805;49.554;7.632;2024-01-30T11:49:14;11.60;99.90
15413;DHT22;7805;49.554;7.632;2024-01-30T11:51:40;11.70;99.90
15413;DHT22;7805;49.554;7.632;2024-01-30T11:54:07;11.90;99.90
15413;DHT22;7805;49.554;7.632;2024-01-30T11:56:32;12.20;99.90
15413;DHT22;7805;49.554;7.632;2024-01-30T11:58:58;12.40;99.90
15413;DHT22;7805;49.554;7.632;2024-01-30T12:01:26;12.70;99.90
15413;DHT22;7805;49.554;7.632;2024-01-30T12:03:52;13.00;99.90
15413;DHT22;7805;49.554;7.632;2024-01-30T12:06:17;13.20;99.90
15413;DHT22;7805;49.554;7.632;2024-01-30T12:08:43;13.40;99.90
15413;DHT22;7805;49.554;7.632;2024-01-30T12:11:19;13.50;99.90
15413;DHT22;7805;49.554;7.632;2024-01-30T12:13:45;13.50;99.90
15413;DHT22;7805;49.554;7.632;2024-01-30T12:16:10;13.50;99.90
15413;DHT22;7805;49.554;7.632;2024-01-30T12:18:38;13.50;99.90
15413;DHT22;7805;49.554;7.632;2024-01-30T12:21:04;13.60;99.90
15413;DHT22;7805;49.554;7.632;2024-01-30T12:23:30;13.50;99.90
15413;DHT22;7805;49.554;7.632;2024-01-30T12:25:56;13.50;99.90
15413;DHT22;7805;49.554;7.632;2024-01-30T12:28:22;13.40;99.90
15413;DHT22;7805;49.554;7.632;2024-01-30T12:30:48;13.40;99.90
15413;DHT22;7805;49.554;7.632;2024-01-30T12:33:17;13.60;99.90
15413;DHT22;7805;49.554;7.632;2024-01-30T12:35:47;13.60;99.90
15413;DHT22;7805;49.554;7.632;2024-01-30T12:38:14;13.60;99.90
15413;DHT22;7805;49.554;7.632;2024-01-30T12:40:39;13.50;99.90
15413;DHT22;7805;49.554;7.632;2024-01-30T12:43:05;13.60;99.90
15413;DHT22;7805;49.554;7.632;2024-01-30T12:45:31;13.80;99.90
15413;DHT22;7805;49.554;7.632;2024-01-30T12:47:56;13.90;99.90
15413;DHT22;7805;49.554;7.632;2024-01-30T12:50:23;14.00;99.90
15413;DHT22;7805;49.554;7.632;2024-01-30T12:52:49;14.90;99.90
15413;DHT22;7805;49.554;7.632;2024-01-30T12:55:15;14.10;99.90
15413;DHT22;7805;49.554;7.632;2024-01-30T12:57:40;14.10;99.90
15413;DHT22;7805;49.554;7.632;2024-01-30T13:00:07;14.10;99.90
15413;DHT22;7805;49.554;7.632;2024-01-30T13:02:36;14.20;99.90
15413;DHT22;7805;49.554;7.632;2024-01-30T13:05:03;14.40;99.90
15413;DHT22;7805;49.554;7.632;2024-01-30T13:07:30;14.30;99.90
15413;DHT22;7805;49.554;7.632;2024-01-30T13:09:56;14.30;99.90
15413;DHT22;7805;49.554;7.632;2024-01-30T13:12:27;14.30;99.90
15413;DHT22;7805;49.554;7.632;2024-01-30T13:14:53;14.20;99.90
15413;DHT22;7805;49.554;7.632;2024-01-30T13:17:19;14.20;99.90
15413;DHT22;7805;49.554;7.632;2024-01-30T13:19:44;14.40;99.90
15413;DHT22;7805;49.554;7.632;2024-01-30T13:22:10;14.30;99.90
15413;DHT22;7805;49.554;7.632;2024-01-30T13:24:36;14.40;99.90
15413;DHT22;7805;49.554;7.632;2024-01-30T13:27:02;14.50;99.90
15413;DHT22;7805;49.554;7.632;2024-01-30T13:29:27;14.70;99.90
15413;DHT22;7805;49.554;7.632;2024-01-30T13:31:53;14.70;99.90
15413;DHT22;7805;49.554;7.632;2024-01-30T13:34:18;14.50;99.90
15413;DHT22;7805;49.554;7.632;2024-01-30T13:36:44;14.20;99.90
15413;DHT22;7805;49.554;7.632;2024-01-30T13:39:10;13.90;99.90
15413;DHT22;7805;49.554;7.632;2024-01-30T13:41:38;13.70;99.90
15413;DHT22;7805;49.554;7.632;2024-01-30T13:44:03;13.80;99.90
15413;DHT22;7805;49.554;7.632;2024-01-30T13:46:30;13.70;99.90
15413;DHT22;7805;49.554;7.632;2024-01-30T13:48:56;13.60;99.90
15413;DHT22;7805;49.554;7.632;2024-01-30T13:51:21;13.50;99.90
15413;DHT22;7805;49.554;7.632;2024-01-30T13:53:47;13.50;99.90
15413;DHT22;7805;49.554;7.632;2024-01-30T13:56:13;13.30;99.90
15413;DHT22;7805;49.554;7.632;2024-01-30T13:58:38;13.30;99.90
15413;DHT22;7805;49.554;7.632;2024-01-30T14:01:04;13.20;99.90
15413;DHT22;7805;49.554;7.632;2024-01-30T14:03:30;13.20;99.90
15413;DHT22;7805;49.554;7.632;2024-01-30T14:05:55;13.20;99.90
15413;DHT22;7805;49.554;7.632;2024-01-30T14:08:21;13.40;99.90
15413;DHT22;7805;49.554;7.632;2024-01-30T14:10:49;13.00;99.90
15413;DHT22;7805;49.554;7.632;2024-01-30T14:13:15;13.10;99.90
15413;DHT22;7805;49.554;7.632;2024-01-30T14:15:40;12.90;99.90
15413;DHT22;7805;49.554;7.632;2024-01-30T14:18:06;12.90;99.90
15413;DHT22;7805;49.554;7.632;2024-01-30T14:20:33;12.80;99.90
15413;DHT22;7805;49.554;7.632;2024-01-30T14:22:59;12.70;99.90
15413;DHT22;7805;49.554;7.632;2024-01-30T14:25:25;12.70;99.90
15413;DHT22;7805;49.554;7.632;2024-01-30T14:27:51;12.60;99.90
15413;DHT22;7805;49.554;7.632;2024-01-30T14:30:17;12.60;99.90
15413;DHT22;7805;49.554;7.632;2024-01-30T14:32:42;12.60;99.90
15413;DHT22;7805;49.554;7.632;2024-01-30T14:35:10;12.50;99.90
15413;DHT22;7805;49.554;7.632;2024-01-30T14:37:36;12.50;99.90
15413;DHT22;7805;49.554;7.632;2024-01-30T14:40:02;12.50;99.90
15413;DHT22;7805;49.554;7.632;2024-01-30T14:42:28;12.40;99.90
15413;DHT22;7805;49.554;7.632;2024-01-30T14:44:56;12.40;99.90
15413;DHT22;7805;49.554;7.632;2024-01-30T14:47:22;12.40;99.90
15413;DHT22;7805;49.554;7.632;2024-01-30T14:49:48;12.30;99.90
15413;DHT22;7805;49.554;7.632;2024-01-30T14:52:14;12.30;99.90
15413;DHT22;7805;49.554;7.632;2024-01-30T14:54:40;12.30;99.90
15413;DHT22;7805;49.554;7.632;2024-01-30T14:57:06;12.20;99.90
15413;DHT22;7805;49.554;7.632;2024-01-30T14:59:31;12.20;99.90
15413;DHT22;7805;49.554;7.632;2024-01-30T15:01:57;12.20;99.90
15413;DHT22;7805;49.554;7.632;2024-01-30T15:04:22;12.10;99.90
15413;DHT22;7805;49.554;7.632;2024-01-30T15:06:49;12.10;99.90
15413;DHT22;7805;49.554;7.632;2024-01-30T15:09:15;12.10;99.90
15413;DHT22;7805;49.554;7.632;2024-01-30T15:11:41;12.10;99.90
15413;DHT22;7805;49.554;7.632;2024-01-30T15:14:07;12.10;99.90
15413;DHT22;7805;49.554;7.632;2024-01-30T15:16:33;12.10;99.90
15413;DHT22;7805;49.554;7.632;2024-01-30T15:18:58;12.00;99.90
15413;DHT22;7805;49.554;7.632;2024-01-30T15:21:24;12.00;99.90
15413;DHT22;7805;49.554;7.632;2024-01-30T15:23:49;11.40;99.90
15413;DHT22;7805;49.554;7.632;2024-01-30T15:26:15;12.00;99.90
15413;DHT22;7805;49.554;7.632;2024-01-30T15:28:41;12.00;99.90
15413;DHT22;7805;49.554;7.632;2024-01-30T15:31:06;12.10;99.90
15413;DHT22;7805;49.554;7.632;2024-01-30T15:33:33;12.10;99.90
15413;DHT22;7805;49.554;7.632;2024-01-30T15:36:00;12.10;99.90
15413;DHT22;7805;49.554;7.632;2024-01-30T15:38:25;12.10;99.90
15413;DHT22;7805;49.554;7.632;2024-01-30T15:40:52;12.10;99.90
15413;DHT22;7805;49.554;7.632;2024-01-30T15:43:17;12.10;99.90
15413;DHT22;7805;49.554;7.632;2024-01-30T15:45:43;12.00;99.90
15413;DHT22;7805;49.554;7.632;2024-01-30T15:48:08;12.00;99.90
15413;DHT22;7805;49.554;7.632;2024-01-30T15:50:34;12.00;99.90